Matlock, Washington
Current Conditions -  °F | °C
As of 3:53 PM on Thursday 18 Dec 2014 (Local Time) from KSHN Reporting Station
Overcast Overcast  
Wind Chill: 46°   Ceiling: 4800
Heat Index: 48°   Visibility: 10mi
Dew Point: 46°   Wind: 5mph
Humidity: 93%   Direction: 90°E
Pressure: 29.76"   Gusts: NA
Location:  47.24°N, 123.41°W
Report Text: KSHN 182353Z AUTO 09004KT 10SM FEW021 BKN048 OVC060 09/08 A2976 RMK AO2 RAE48 SLP080 P0005 60023 T00890078 10089 20072 58019
Loading
Personal Weather Stations






























Interactive Weather Map New forecast layout! Learn more

10-Day Weather Forecast

Advertisements
Track Severe Weather on mobile